Time;durP1;ratioP1;P1;durP2;ratioP2;P2;SDS_P1;SDS_P2;PMS_P1;PMS_P2;Temp;Humidity;BMP_temperature;BMP_pressure;BME280_temperature;BME280_humidity;BME280_pressure;Samples;Min_cycle;Max_cycle;Signal;HPM_P1;HPM_P2
2022/04/21 00:01:17;;;;;;;25.97;13.32;;;;;;;2.04;100.00;99985.91;1770494;81;21169;-81
2022/04/21 00:04:23;;;;;;;18.17;13.38;;;;;;;2.07;100.00;99988.86;1772088;81;21157;-82
2022/04/21 00:07:28;;;;;;;19.42;12.50;;;;;;;2.12;100.00;99987.97;1771380;81;21224;-81
2022/04/21 00:10:36;;;;;;;18.60;13.08;;;;;;;2.21;100.00;99993.94;1771954;81;21238;-81
2022/04/21 00:13:42;;;;;;;24.25;13.53;;;;;;;2.30;100.00;99990.92;1770652;80;21181;-82
2022/04/21 00:16:50;;;;;;;20.35;13.95;;;;;;;2.40;100.00;99980.19;1771889;81;21173;-78
2022/04/21 00:19:57;;;;;;;14.95;10.75;;;;;;;2.49;100.00;99976.69;1770741;80;21201;-81
2022/04/21 00:26:27;;;;;;;18.00;13.25;;;;;;;2.66;100.00;99981.50;1771957;81;21173;-78
2022/04/21 00:29:33;;;;;;;17.82;12.95;;;;;;;2.76;100.00;99978.84;1770809;80;21179;-77
2022/04/21 00:32:43;;;;;;;17.42;13.22;;;;;;;2.81;100.00;99981.50;1771142;81;21169;-77
2022/04/21 00:35:51;;;;;;;17.73;13.43;;;;;;;2.90;100.00;99981.19;1766680;81;21161;-77
2022/04/21 00:38:57;;;;;;;15.95;12.07;;;;;;;2.96;100.00;99971.67;1767382;81;21220;-77
2022/04/21 00:42:07;;;;;;;22.30;13.78;;;;;;;3.01;100.00;99974.82;1731910;83;21193;-77
2022/04/21 00:45:14;;;;;;;17.02;12.88;;;;;;;3.05;100.00;99983.02;1767452;81;21702;-77
2022/04/21 00:48:19;;;;;;;22.85;13.88;;;;;;;3.08;100.00;99986.81;1729802;82;21703;-77
2022/04/21 00:51:25;;;;;;;19.92;14.78;;;;;;;3.13;100.00;99979.15;1733585;81;21440;-77
2022/04/21 00:54:25;;;;;;;21.17;15.78;;;;;;;3.18;100.00;99971.98;1751767;81;21157;-77
2022/04/21 00:57:32;;;;;;;19.82;13.65;;;;;;;3.20;100.00;99965.93;1750260;81;21117;-81
2022/04/21 01:00:37;;;;;;;21.45;14.85;;;;;;;3.22;100.00;99970.72;1754679;81;21797;-80
2022/04/21 01:03:43;;;;;;;23.60;14.20;;;;;;;3.23;100.00;99965.17;1755654;81;21150;-81
2022/04/21 01:06:50;;;;;;;28.40;16.97;;;;;;;3.25;100.00;99958.30;1752256;81;21750;-81
2022/04/21 01:09:57;;;;;;;23.30;16.67;;;;;;;3.29;100.00;99955.64;1760473;81;21212;-81
2022/04/21 01:13:05;;;;;;;24.72;16.87;;;;;;;3.34;100.00;99952.05;1772067;81;21193;-81
2022/04/21 01:16:11;;;;;;;20.80;14.78;;;;;;;3.40;100.00;99948.78;1771486;81;21699;-81
2022/04/21 01:19:16;;;;;;;22.13;16.00;;;;;;;3.45;100.00;99940.26;1771821;81;21150;-81
2022/04/21 01:22:21;;;;;;;23.65;13.43;;;;;;;3.43;100.00;99953.05;1770408;81;21703;-81
2022/04/21 01:25:27;;;;;;;22.10;13.70;;;;;;;3.37;100.00;99953.61;1770847;81;21531;-82
2022/04/21 01:28:33;;;;;;;17.75;12.50;;;;;;;3.38;100.00;99965.63;1772030;81;21224;-82
2022/04/21 01:31:39;;;;;;;23.77;14.35;;;;;;;3.42;100.00;99963.01;1770293;80;21161;-81
2022/04/21 01:34:46;;;;;;;18.15;12.75;;;;;;;3.43;100.00;99959.30;1771352;79;21174;-82
2022/04/21 01:41:17;;;;;;;18.70;13.03;;;;;;;3.43;100.00;99948.48;1779158;80;21165;-82
2022/04/21 01:44:22;;;;;;;15.63;11.50;;;;;;;3.47;100.00;99953.98;1779602;80;21249;-81
2022/04/21 01:47:27;;;;;;;16.45;11.20;;;;;;;3.49;100.00;99958.77;1780091;80;21193;-81
2022/04/21 01:50:34;;;;;;;24.50;14.05;;;;;;;3.53;100.00;99971.52;1778904;80;22071;-81
2022/04/21 01:53:39;;;;;;;18.10;12.53;;;;;;;3.56;100.00;99976.63;1778584;80;21741;-82
2022/04/21 01:56:44;;;;;;;17.67;12.30;;;;;;;3.59;100.00;99969.10;1778998;80;21156;-81
2022/04/21 01:59:51;;;;;;;21.93;12.30;;;;;;;3.65;100.00;99981.20;1780075;80;21312;-81
2022/04/21 02:02:58;;;;;;;21.62;14.90;;;;;;;3.70;100.00;99976.73;1779214;80;21790;-81
2022/04/21 02:06:03;;;;;;;16.62;12.65;;;;;;;3.72;100.00;99982.37;1778714;80;21153;-81
2022/04/21 02:09:10;;;;;;;18.42;13.28;;;;;;;3.73;100.00;99979.16;1779998;80;21710;-81
2022/04/21 02:12:16;;;;;;;21.37;10.78;;;;;;;3.74;100.00;99977.66;1778739;80;21176;-82
2022/04/21 02:15:23;;;;;;;15.90;10.68;;;;;;;3.75;100.00;99978.01;1778695;80;21153;-81
2022/04/21 02:18:29;;;;;;;24.25;12.43;;;;;;;3.76;100.00;99979.70;1778829;80;21243;-81
2022/04/21 02:21:35;;;;;;;13.38;9.85;;;;;;;3.73;100.00;99974.60;1778866;80;21211;-82
2022/04/21 02:24:40;;;;;;;14.98;11.78;;;;;;;3.72;100.00;99972.90;1779318;80;21193;-81
2022/04/21 02:27:49;;;;;;;18.35;11.18;;;;;;;3.71;100.00;99975.72;1778710;80;21176;-81
2022/04/21 02:30:55;;;;;;;19.17;12.15;;;;;;;3.71;100.00;99972.52;1780183;80;21141;-81
2022/04/21 02:34:01;;;;;;;18.27;11.03;;;;;;;3.73;100.00;99973.75;1780098;80;21161;-81
2022/04/21 02:37:09;;;;;;;18.35;11.68;;;;;;;3.72;100.00;99973.40;1781521;79;21192;-81
2022/04/21 02:40:15;;;;;;;16.75;12.68;;;;;;;3.71;100.00;99976.58;1785663;80;21195;-81
2022/04/21 02:43:22;;;;;;;17.50;12.03;;;;;;;3.71;100.00;99979.28;1785720;80;21719;-81
2022/04/21 02:46:28;;;;;;;18.48;11.55;;;;;;;3.70;100.00;99980.28;1785698;80;21144;-82
2022/04/21 02:49:35;;;;;;;14.53;11.45;;;;;;;3.68;100.00;99979.58;1784161;80;21161;-82
2022/04/21 02:52:44;;;;;;;15.43;11.53;;;;;;;3.70;100.00;99977.58;1784970;80;21193;-82
2022/04/21 02:59:14;;;;;;;16.10;10.93;;;;;;;3.74;100.00;99983.06;1784226;80;21157;-81
2022/04/21 03:02:20;;;;;;;16.17;11.48;;;;;;;3.76;100.00;99970.24;1785323;80;21191;-81
2022/04/21 03:05:27;;;;;;;15.28;10.18;;;;;;;3.80;100.00;99975.73;1784389;80;21753;-81
2022/04/21 03:08:34;;;;;;;17.55;9.93;;;;;;;3.82;100.00;99979.17;1784483;80;21176;-81
2022/04/21 03:11:40;;;;;;;17.77;10.25;;;;;;;3.83;100.00;99978.16;1785399;80;21260;-81
2022/04/21 03:14:49;;;;;;;19.02;9.73;;;;;;;3.85;100.00;99978.87;1785455;80;21181;-81
2022/04/21 03:17:55;;;;;;;13.25;8.55;;;;;;;3.88;100.00;99977.74;1785931;80;21181;-81
2022/04/21 03:24:22;;;;;;;15.85;8.08;;;;;;;3.94;100.00;99982.58;1784260;80;21160;-81
2022/04/21 03:27:29;;;;;;;10.55;7.97;;;;;;;3.98;100.00;99973.69;1784244;80;21168;-81
2022/04/21 03:30:35;;;;;;;10.75;8.40;;;;;;;3.99;100.00;99981.66;1785506;80;21181;-81
2022/04/21 03:33:42;;;;;;;11.50;8.93;;;;;;;4.02;100.00;99971.91;1783772;80;21204;-78
2022/04/21 03:36:49;;;;;;;12.73;7.33;;;;;;;4.05;100.00;99980.25;1784385;80;21219;-82
2022/04/21 03:39:54;;;;;;;11.68;7.97;;;;;;;4.08;100.00;99981.30;1746898;82;21152;-78
2022/04/21 03:43:01;;;;;;;19.57;8.53;;;;;;;4.12;100.00;99976.47;1746188;82;21709;-78
2022/04/21 03:46:07;;;;;;;11.90;9.35;;;;;;;4.15;100.00;99975.69;1745153;82;21838;-78
2022/04/21 03:49:14;;;;;;;12.23;9.38;;;;;;;4.16;100.00;99971.98;1745907;82;21717;-78
2022/04/21 03:52:19;;;;;;;14.43;10.80;;;;;;;4.16;100.00;99970.63;1745916;82;22113;-79
2022/04/21 03:55:26;;;;;;;13.40;9.25;;;;;;;4.17;100.00;99965.55;1744315;82;21851;-77
2022/04/21 03:58:33;;;;;;;13.18;9.55;;;;;;;4.21;100.00;99962.92;1744770;82;21176;-77
2022/04/21 04:01:38;;;;;;;15.58;9.20;;;;;;;4.25;100.00;99968.41;1745287;82;21156;-77
2022/04/21 04:04:45;;;;;;;11.93;9.83;;;;;;;4.30;100.00;99966.12;1743286;82;21180;-77
2022/04/21 04:11:17;;;;;;;16.02;10.20;;;;;;;4.36;100.00;99976.36;1715919;83;21186;-77
2022/04/21 04:14:22;;;;;;;12.37;10.75;;;;;;;4.41;100.00;99973.72;1717177;83;21254;-78
2022/04/21 04:17:29;;;;;;;13.32;9.85;;;;;;;4.44;100.00;99973.44;1717345;83;21795;-78
2022/04/21 04:20:36;;;;;;;13.43;10.85;;;;;;;4.45;100.00;99973.79;1714828;82;21180;-77
2022/04/21 04:23:43;;;;;;;18.90;11.00;;;;;;;4.50;100.00;99960.66;1709047;83;21204;-77
2022/04/21 04:26:49;;;;;;;14.18;10.05;;;;;;;4.57;100.00;99963.16;1709386;83;21228;-77
2022/04/21 04:29:55;;;;;;;13.22;9.58;;;;;;;4.63;100.00;99961.20;1710485;84;21173;-77
2022/04/21 04:33:01;;;;;;;12.28;9.25;;;;;;;4.71;100.00;99964.55;1709265;83;21251;-78
2022/04/21 04:36:16;;;;;;;15.58;9.35;;;;;;;4.78;100.00;99959.73;1709994;82;21169;-78
2022/04/21 04:39:17;;;;;;;14.80;8.70;;;;;;;4.87;100.00;99969.69;1732335;81;21195;-78
2022/04/21 04:42:28;;;;;;;15.98;9.23;;;;;;;4.97;100.00;99971.00;1755287;81;21219;-77
2022/04/21 04:49:01;;;;;;;14.00;7.50;;;;;;;5.15;100.00;99976.50;1754614;81;21753;-77
2022/04/21 04:52:01;;;;;;;10.72;9.00;;;;;;;5.25;100.00;99980.52;1755497;81;21228;-78
2022/04/21 04:55:07;;;;;;;12.80;8.38;;;;;;;5.33;100.00;99995.03;1755774;81;21784;-77
2022/04/21 04:58:14;;;;;;;12.88;8.43;;;;;;;5.41;100.00;99996.13;1754284;81;21183;-77
2022/04/21 05:01:20;;;;;;;12.43;9.33;;;;;;;5.46;100.00;99993.81;1755863;81;21163;-77
2022/04/21 05:04:27;;;;;;;15.58;8.38;;;;;;;5.49;100.00;99993.02;1754668;81;21172;-77
2022/04/21 05:07:33;;;;;;;15.93;9.23;;;;;;;5.58;100.00;99988.04;1755108;81;21160;-77
2022/04/21 05:10:38;;;;;;;21.35;9.35;;;;;;;5.70;100.00;99994.13;1756059;81;21129;-78
2022/04/21 05:13:44;;;;;;;15.40;7.85;;;;;;;5.85;100.00;99999.88;1754836;81;21207;-78
2022/04/21 05:16:52;;;;;;;13.35;7.72;;;;;;;5.97;100.00;100000.02;1762242;81;21204;-78
2022/04/21 05:19:59;;;;;;;12.40;7.33;;;;;;;6.07;100.00;100006.73;1749414;81;21181;-77
2022/04/21 05:23:14;;;;;;;12.37;7.87;;;;;;;6.10;100.00;100008.63;1743438;82;21824;-77
2022/04/21 05:26:19;;;;;;;10.10;7.45;;;;;;;6.17;100.00;100007.53;1752301;81;21196;-77
2022/04/21 05:32:48;;;;;;;11.83;8.38;;;;;;;6.32;100.00;100011.91;1768125;81;21212;-77
2022/04/21 05:35:54;;;;;;;11.45;8.53;;;;;;;6.42;100.00;100019.97;1759820;81;21152;-77
2022/04/21 05:39:00;;;;;;;14.53;8.30;;;;;;;6.50;100.00;100018.17;1770477;81;21201;-77
2022/04/21 05:42:06;;;;;;;12.68;7.92;;;;;;;6.59;100.00;100015.02;1773345;81;21180;-78
2022/04/21 05:45:13;;;;;;;11.53;8.35;;;;;;;6.68;100.00;100014.08;1773856;81;21785;-78
2022/04/21 05:48:22;;;;;;;12.33;8.93;;;;;;;6.77;100.00;100011.73;1772435;81;21195;-78
2022/04/21 05:51:29;;;;;;;12.55;8.38;;;;;;;6.81;100.00;100014.48;1757771;81;21762;-77
2022/04/21 05:54:35;;;;;;;15.68;8.63;;;;;;;6.90;100.00;100020.84;1768152;80;21144;-78
2022/04/21 05:57:40;;;;;;;14.53;8.53;;;;;;;7.00;100.00;100022.09;1737533;82;21212;-78
2022/04/21 06:00:46;;;;;;;13.03;8.68;;;;;;;7.23;100.00;100016.45;1738035;82;21152;-77
2022/04/21 06:03:54;;;;;;;9.83;7.95;;;;;;;7.55;100.00;100021.70;1738480;82;21694;-77
2022/04/21 06:06:59;;;;;;;13.35;8.23;;;;;;;7.84;100.00;100023.50;1763738;81;21191;-77
2022/04/21 06:10:06;;;;;;;9.70;7.53;;;;;;;8.01;100.00;100023.05;1768276;81;21170;-77
2022/04/21 06:13:13;;;;;;;17.17;8.48;;;;;;;8.30;100.00;100027.19;1768291;81;21702;-78
2022/04/21 06:16:20;;;;;;;9.00;6.97;;;;;;;8.57;100.00;100020.09;1768901;81;21733;-77
2022/04/21 06:19:26;;;;;;;13.38;8.03;;;;;;;8.72;100.00;100016.16;1770392;81;21723;-78
2022/04/21 06:22:34;;;;;;;12.05;7.67;;;;;;;8.85;100.00;100015.64;1772478;81;21212;-78
2022/04/21 06:25:40;;;;;;;8.90;6.60;;;;;;;8.89;100.00;100016.48;1754670;81;21180;-78
2022/04/21 06:28:47;;;;;;;11.10;7.55;;;;;;;8.91;100.00;100023.97;1756170;81;21180;-77
2022/04/21 06:31:52;;;;;;;8.00;7.05;;;;;;;8.98;100.00;100021.39;1753304;81;21188;-77
2022/04/21 06:34:58;;;;;;;9.30;7.35;;;;;;;9.13;100.00;100025.66;1769435;81;21113;-78
2022/04/21 06:38:07;;;;;;;8.88;6.05;;;;;;;9.29;99.03;100023.39;1754408;81;21476;-78
2022/04/21 06:41:12;;;;;;;12.10;6.08;;;;;;;9.43;97.24;100022.14;1768604;80;21180;-78
2022/04/21 06:50:46;;;;;;;;;;;;;;;9.51;90.58;100029.46;1772789;80;21151;-78
2022/04/21 06:53:51;;;;;;;11.50;6.12;;;;;;;9.33;90.43;100037.02;1783095;80;20269;-77
2022/04/21 06:56:58;;;;;;;9.95;5.95;;;;;;;9.24;91.51;100043.53;1776718;80;21180;-81
2022/04/21 07:00:03;;;;;;;9.65;5.33;;;;;;;9.18;91.70;100043.72;1776097;80;21154;-81
2022/04/21 07:03:10;;;;;;;9.73;5.72;;;;;;;9.09;90.86;100040.15;1783998;79;21172;-81
2022/04/21 07:06:17;;;;;;;7.87;5.80;;;;;;;9.00;91.87;100039.82;1770058;80;21714;-81
2022/04/21 07:09:23;;;;;;;8.00;6.33;;;;;;;9.13;92.93;100035.20;1783678;80;21750;-81
2022/04/21 07:12:38;;;;;;;7.55;5.47;;;;;;;9.32;91.98;100032.08;1783975;79;21737;-81
2022/04/21 07:15:44;;;;;;;7.90;5.17;;;;;;;9.54;91.07;100030.97;1785084;80;21192;-81
2022/04/21 07:18:51;;;;;;;9.70;5.33;;;;;;;9.73;89.30;100035.48;1783933;80;21165;-81
2022/04/21 07:21:56;;;;;;;7.92;5.28;;;;;;;9.77;86.79;100031.90;1782004;80;21188;-81
2022/04/21 07:25:04;;;;;;;7.35;4.60;;;;;;;9.73;85.11;100031.91;1776421;80;21750;-80
2022/04/21 07:28:10;;;;;;;7.25;5.67;;;;;;;9.66;82.38;100036.39;1778593;80;21173;-81
2022/04/21 07:31:18;;;;;;;8.68;5.33;;;;;;;9.47;81.23;100031.69;1775452;80;21232;-82
2022/04/21 07:34:25;;;;;;;5.62;4.58;;;;;;;9.33;81.96;100028.32;1785076;80;21141;-81
2022/04/21 07:37:36;;;;;;;8.10;5.37;;;;;;;9.21;81.81;100029.70;1769366;79;21204;-82
2022/04/21 07:40:42;;;;;;;7.40;5.17;;;;;;;9.13;83.05;100031.11;1781959;80;21137;-81
2022/04/21 07:43:49;;;;;;;7.80;4.92;;;;;;;9.12;84.70;100023.41;1783150;80;21267;-82
2022/04/21 07:46:54;;;;;;;6.97;4.87;;;;;;;9.16;84.20;100027.50;1783101;79;21149;-82
2022/04/21 07:50:00;;;;;;;6.85;4.22;;;;;;;9.20;81.41;100028.86;1771352;80;21232;-81
2022/04/21 07:53:18;;;;;;;7.08;4.00;;;;;;;9.18;79.91;100025.47;1769700;80;21864;-81
2022/04/21 07:56:23;;;;;;;6.92;4.80;;;;;;;9.23;80.21;100029.03;1773626;80;21157;-81
2022/04/21 07:59:29;;;;;;;6.85;4.80;;;;;;;9.42;81.41;100018.23;1780272;80;21168;-81
2022/04/21 08:02:36;;;;;;;7.45;5.03;;;;;;;9.67;82.75;100025.80;1781482;80;21187;-80
2022/04/21 08:05:45;;;;;;;7.90;4.30;;;;;;;9.85;83.68;100026.92;1771067;80;21188;-80
2022/04/21 08:08:50;;;;;;;6.67;4.35;;;;;;;10.02;82.97;100023.08;1780775;80;21188;-81
2022/04/21 08:11:57;;;;;;;4.67;4.05;;;;;;;10.13;81.91;100021.81;1773060;80;21185;-81
2022/04/21 08:15:03;;;;;;;7.08;4.50;;;;;;;10.27;82.10;100019.70;1781471;80;21666;-82
2022/04/21 08:18:11;;;;;;;7.92;4.33;;;;;;;10.31;78.14;100020.19;1776552;79;21192;-81
2022/04/21 08:21:18;;;;;;;5.67;3.77;;;;;;;10.18;78.06;100027.58;1784187;80;21179;-81
2022/04/21 08:34:33;;;;;;;7.33;4.53;;;;;;;9.64;79.48;100031.61;1773973;80;21177;-81
2022/04/21 08:37:42;;;;;;;5.62;4.45;;;;;;;9.65;80.68;100027.36;1772383;80;21661;-82
2022/04/21 08:40:55;;;;;;;7.97;4.22;;;;;;;9.67;81.39;100017.09;1769575;80;21156;-82
2022/04/21 08:44:05;;;;;;;6.40;4.58;;;;;;;9.75;80.17;100023.05;1771743;80;21781;-82
2022/04/21 08:47:17;;;;;;;7.08;4.10;;;;;;;9.86;79.30;100018.53;1777803;79;21219;-81
2022/04/21 08:50:21;;;;;;;5.62;4.70;;;;;;;10.03;78.87;100014.36;1757345;80;21153;-81
2022/04/21 08:53:28;;;;;;;6.42;4.42;;;;;;;10.26;78.48;100018.00;1774694;79;21165;-81
2022/04/21 08:56:35;;;;;;;8.30;4.70;;;;;;;10.57;78.34;100010.23;1771735;79;21192;-81
2022/04/21 08:59:40;;;;;;;4.42;3.70;;;;;;;10.80;76.13;100012.43;1764239;80;21169;-81
2022/04/21 09:02:49;;;;;;;6.97;4.33;;;;;;;10.84;73.73;100008.30;1778938;80;21849;-82
2022/04/21 09:05:55;;;;;;;6.37;3.80;;;;;;;10.77;74.69;100011.42;1779350;80;21221;-81
2022/04/21 09:09:24;;;;;;;4.62;3.90;;;;;;;10.80;74.20;100000.12;1777425;80;21210;-82
2022/04/21 09:12:31;;;;;;;7.10;4.55;;;;;;;10.75;73.02;99997.09;1720831;82;21264;-81
2022/04/21 09:15:43;;;;;;;5.53;4.17;;;;;;;10.65;73.40;100000.61;1733198;82;21237;-81
2022/04/21 09:18:52;;;;;;;7.42;4.10;;;;;;;10.66;72.19;100003.67;1732452;82;21532;-82
2022/04/21 09:22:00;;;;;;;4.58;3.98;;;;;;;10.64;72.10;100005.23;1716060;82;21724;-82
2022/04/21 09:25:06;;;;;;;6.22;4.03;;;;;;;10.70;74.23;99996.80;1725975;82;21141;-82
2022/04/21 09:28:07;;;;;;;7.25;4.12;;;;;;;10.88;73.23;99997.31;1723814;82;21233;-82
2022/04/21 09:31:13;;;;;;;5.90;3.87;;;;;;;11.00;71.67;100001.80;1725754;82;21478;-82
2022/04/21 09:34:19;;;;;;;5.47;3.47;;;;;;;11.07;71.67;99997.81;1674928;82;21162;-82
2022/04/21 09:37:22;;;;;;;4.65;3.22;;;;;;;10.99;69.29;99996.00;1687773;84;21223;-82
2022/04/21 09:40:18;;;;;;;6.80;4.05;;;;;;;10.89;70.09;100001.74;1710202;83;21219;-81
2022/04/21 09:43:37;;;;;;;6.03;3.67;;;;;;;10.78;69.77;100002.72;1685576;83;21207;-82
2022/04/21 09:46:44;;;;;;;6.45;3.45;;;;;;;10.68;70.20;99993.37;1722946;83;22028;-82
2022/04/21 09:49:50;;;;;;;4.65;3.45;;;;;;;10.60;69.84;100004.41;1723311;83;21801;-81
2022/04/21 09:53:01;;;;;;;4.37;3.40;;;;;;;10.61;69.50;99996.53;1709968;84;21212;-81
2022/04/21 09:56:17;;;;;;;4.12;3.30;;;;;;;10.67;69.12;99993.05;1708997;83;21780;-78
2022/04/21 09:59:22;;;;;;;4.87;3.70;;;;;;;10.70;69.24;99998.16;1724038;83;21185;-78
2022/04/21 10:02:33;;;;;;;6.10;3.90;;;;;;;10.72;69.41;99996.08;1729258;81;21697;-78
2022/04/21 10:05:43;;;;;;;6.40;3.42;;;;;;;10.83;69.60;99991.55;1731685;83;21170;-78
2022/04/21 10:08:46;;;;;;;4.70;3.52;;;;;;;10.89;67.99;99996.27;1731750;81;21245;-81
2022/04/21 10:11:52;;;;;;;5.15;3.25;;;;;;;10.86;65.59;99990.31;1714202;83;21223;-81
2022/04/21 10:15:00;;;;;;;7.33;4.10;;;;;;;10.77;64.29;99996.89;1730040;83;21769;-82
2022/04/21 10:18:06;;;;;;;5.45;3.80;;;;;;;10.67;65.82;99995.27;1730351;81;21216;-81
2022/04/21 10:21:12;;;;;;;7.50;3.85;;;;;;;10.76;66.04;99998.78;1730649;83;21173;-82
2022/04/21 10:24:19;;;;;;;4.83;3.20;;;;;;;10.81;65.52;99996.86;1729684;82;21656;-81
2022/04/21 10:27:53;;;;;;;5.00;3.15;;;;;;;10.85;65.78;100002.30;1732370;81;21272;-81
2022/04/21 10:30:59;;;;;;;4.85;3.40;;;;;;;10.87;65.28;100000.21;1732409;83;21842;-82
2022/04/21 10:34:12;;;;;;;8.98;3.83;;;;;;;10.94;66.04;100006.66;1727443;83;21186;-82
2022/04/21 10:37:28;;;;;;;4.83;3.40;;;;;;;11.01;66.95;100010.36;1726263;81;21827;-82
2022/04/21 10:40:34;;;;;;;4.70;3.20;;;;;;;11.05;66.31;100009.45;1704554;83;21185;-82
2022/04/21 10:43:59;;;;;;;5.10;3.15;;;;;;;11.02;65.09;100019.42;1665931;83;22097;-82
2022/04/21 10:47:41;;;;;;;6.00;3.47;;;;;;;10.94;64.40;100016.23;1706243;81;21193;-82
2022/04/21 10:50:50;;;;;;;4.22;3.10;;;;;;;10.96;65.51;100022.36;1722993;83;21229;-82
2022/04/21 10:57:37;;;;;;;5.22;3.02;;;;;;;11.04;63.95;100026.91;1672120;85;21244;-82
2022/04/21 11:00:44;;;;;;;4.17;2.67;;;;;;;11.11;63.36;100029.25;1642384;87;21241;-82
2022/04/21 11:03:51;;;;;;;7.17;2.42;;;;;;;11.14;63.63;100029.70;1715969;83;21167;-82
2022/04/21 11:07:03;;;;;;;3.45;2.42;;;;;;;11.22;61.03;100031.52;1723898;81;21755;-81
2022/04/21 11:10:08;;;;;;;3.65;2.27;;;;;;;11.25;57.87;100031.16;1728272;82;22143;-81
2022/04/21 11:13:21;;;;;;;3.10;1.90;;;;;;;11.28;57.38;100025.28;1731479;82;21530;-81
2022/04/21 11:16:53;;;;;;;2.92;2.12;;;;;;;11.38;55.93;100032.70;1732895;82;21185;-81
2022/04/21 11:19:59;;;;;;;1.98;1.70;;;;;;;11.48;55.18;100025.08;1731811;82;21179;-81
2022/04/21 11:23:05;;;;;;;5.10;2.30;;;;;;;11.47;54.31;100029.35;1702152;83;21771;-81
2022/04/21 11:26:15;;;;;;;4.50;2.10;;;;;;;11.45;55.82;100034.19;1723419;83;21730;-81
2022/04/21 11:29:21;;;;;;;2.83;2.00;;;;;;;11.40;56.04;100032.00;1725866;83;21197;-81
2022/04/21 11:32:27;;;;;;;9.10;3.60;;;;;;;11.38;55.57;100030.48;1725263;83;21248;-82
2022/04/21 11:35:32;;;;;;;4.08;2.20;;;;;;;11.25;56.32;100038.84;1728703;82;21972;-81
2022/04/21 11:38:43;;;;;;;2.35;1.75;;;;;;;11.04;55.32;100035.97;1730085;82;21174;-81
2022/04/21 11:41:52;;;;;;;3.92;1.77;;;;;;;10.85;56.70;100033.77;1702525;83;21564;-81
2022/04/21 11:44:58;;;;;;;5.28;1.98;;;;;;;10.81;59.53;100036.01;1703647;84;21177;-81
2022/04/21 11:48:03;;;;;;;4.10;2.00;;;;;;;10.73;60.53;100040.20;1701776;83;21755;-81
2022/04/21 11:51:13;;;;;;;3.25;1.90;;;;;;;10.68;61.13;100032.55;1703165;83;21221;-81
2022/04/21 11:54:19;;;;;;;3.35;2.40;;;;;;;10.68;60.90;100037.14;1704985;83;21181;-81
2022/04/21 11:57:27;;;;;;;5.62;1.98;;;;;;;10.66;63.42;100040.08;1715610;83;21192;-81
2022/04/21 12:07:27;;;;;;;2.90;1.60;;;;;;;10.73;64.23;100034.73;1732822;82;21218;-81
2022/04/21 12:10:33;;;;;;;4.72;2.00;;;;;;;10.82;63.02;100041.84;1708053;82;21221;-81
2022/04/21 12:13:37;;;;;;;3.92;2.15;;;;;;;10.87;64.62;100044.88;1732880;81;21774;-81
2022/04/21 12:16:46;;;;;;;3.27;1.70;;;;;;;10.93;62.41;100036.44;1732879;81;21201;-81
2022/04/21 12:19:52;;;;;;;1.90;1.40;;;;;;;10.93;62.91;100033.70;1732436;82;21166;-81
2022/04/21 12:22:58;;;;;;;2.67;1.72;;;;;;;10.99;63.78;100029.69;1732589;81;21822;-81
2022/04/21 12:26:04;;;;;;;2.80;1.82;;;;;;;11.08;63.20;100025.51;1718789;82;21212;-82
2022/04/21 12:29:11;;;;;;;5.00;2.20;;;;;;;11.03;61.29;100034.28;1716182;83;21168;-82
2022/04/21 12:32:18;;;;;;;4.65;2.52;;;;;;;10.93;62.25;100037.28;1694483;83;21219;-82
2022/04/21 12:35:23;;;;;;;3.45;2.25;;;;;;;10.95;62.85;100033.83;1724024;82;21537;-82
2022/04/21 12:41:52;;;;;;;4.22;2.90;;;;;;;11.00;65.05;100038.74;1731490;82;21779;-82
2022/04/21 12:44:59;;;;;;;5.62;1.70;;;;;;;11.03;63.18;100023.85;1733181;82;21184;-82
2022/04/21 12:48:04;;;;;;;2.27;1.60;;;;;;;10.94;61.45;100031.28;1731462;82;21242;-81
2022/04/21 12:51:12;;;;;;;7.65;2.10;;;;;;;10.75;61.81;100029.92;1731532;82;21217;-82
2022/04/21 12:54:18;;;;;;;6.33;1.87;;;;;;;10.61;62.94;100038.41;1729592;82;21193;-82
2022/04/21 12:57:24;;;;;;;3.33;1.80;;;;;;;10.63;63.87;100035.48;1714379;82;21217;-82
2022/04/21 13:00:32;;;;;;;4.65;1.60;;;;;;;10.67;63.74;100044.50;1715812;83;21200;-81
2022/04/21 13:03:40;;;;;;;2.75;1.57;;;;;;;10.69;63.93;100047.08;1721653;83;21230;-81
2022/04/21 13:06:46;;;;;;;1.77;1.22;;;;;;;10.78;64.63;100047.86;1724829;82;21564;-82
2022/04/21 13:09:52;;;;;;;3.33;1.67;;;;;;;10.84;64.95;100049.33;1728463;82;21177;-82
2022/04/21 13:12:58;;;;;;;2.60;1.70;;;;;;;10.83;63.40;100039.43;1729866;81;21696;-82
2022/04/21 13:16:04;;;;;;;6.37;1.62;;;;;;;10.71;63.63;100049.09;1732332;82;21169;-82
2022/04/21 13:19:03;;;;;;;3.00;1.65;;;;;;;10.61;65.14;100038.93;1731287;82;21165;-82
2022/04/21 13:22:10;;;;;;;2.33;1.65;;;;;;;10.63;65.41;100041.83;1708787;81;21479;-82
2022/04/21 13:25:15;;;;;;;2.47;1.60;;;;;;;10.66;64.66;100040.59;1727350;82;21150;-82
2022/04/21 13:28:22;;;;;;;2.42;1.60;;;;;;;10.63;64.68;100042.31;1732342;81;21195;-79
2022/04/21 13:34:52;;;;;;;2.12;1.60;;;;;;;10.50;62.65;100042.95;1732426;82;21205;-78
2022/04/21 13:38:00;;;;;;;5.25;1.75;;;;;;;10.47;64.62;100046.03;1732644;81;21213;-78
2022/04/21 13:41:05;;;;;;;5.33;1.90;;;;;;;10.48;64.37;100051.83;1717267;83;21166;-78
2022/04/21 13:44:12;;;;;;;3.60;1.87;;;;;;;10.45;64.15;100055.80;1682969;85;21156;-79
2022/04/21 13:47:19;;;;;;;1.95;1.62;;;;;;;10.41;63.46;100057.71;1704754;83;21854;-79
2022/04/21 13:50:24;;;;;;;3.58;1.95;;;;;;;10.33;64.69;100055.87;1732335;83;21174;-78
2022/04/21 13:53:31;;;;;;;2.00;1.50;;;;;;;10.30;63.76;100065.78;1732378;81;21244;-78
2022/04/21 13:56:35;;;;;;;2.98;1.55;;;;;;;10.30;64.09;100061.69;1732397;81;21166;-78
2022/04/21 13:59:35;;;;;;;3.33;1.67;;;;;;;10.37;63.38;100059.10;1731100;82;21174;-78
2022/04/21 14:02:42;;;;;;;2.58;1.35;;;;;;;10.44;63.23;100064.16;1732855;83;21565;-78
2022/04/21 14:05:48;;;;;;;2.27;1.25;;;;;;;10.49;63.41;100068.08;1731496;83;21648;-78
2022/04/21 14:08:54;;;;;;;3.05;1.65;;;;;;;10.54;62.92;100070.27;1722473;83;21205;-77
2022/04/21 14:12:01;;;;;;;2.92;1.60;;;;;;;10.54;62.37;100071.64;1725193;82;21204;-78
2022/04/21 14:15:08;;;;;;;2.22;1.25;;;;;;;10.55;62.69;100069.23;1724179;83;21203;-79
2022/04/21 14:18:14;;;;;;;3.33;1.55;;;;;;;10.48;62.52;100070.45;1729416;81;21217;-78
2022/04/21 14:21:23;;;;;;;1.98;1.40;;;;;;;10.41;63.59;100074.96;1724000;83;21613;-78
2022/04/21 14:24:28;;;;;;;6.70;1.57;;;;;;;10.36;64.26;100071.92;1724127;83;21169;-78
2022/04/21 14:27:27;;;;;;;9.33;1.98;;;;;;;10.34;65.56;100075.85;1729148;81;21249;-78
2022/04/21 14:30:20;;;;;;;3.12;2.10;;;;;;;10.29;66.71;100079.64;1731220;82;21177;-78
2022/04/21 14:33:26;;;;;;;2.10;1.65;;;;;;;10.23;68.74;100084.77;1731413;81;21225;-78
2022/04/21 14:36:33;;;;;;;3.20;1.90;;;;;;;10.04;69.94;100078.91;1731185;83;21199;-78
2022/04/21 14:46:27;;;;;;;5.87;2.10;;;;;;;9.55;73.15;100084.06;1714323;83;21199;-78
2022/04/21 14:49:33;;;;;;;3.83;2.02;;;;;;;9.41;73.76;100095.67;1725605;82;21588;-78
2022/04/21 14:52:39;;;;;;;4.83;2.45;;;;;;;9.30;74.31;100100.98;1725959;83;21607;-78
2022/04/21 14:55:45;;;;;;;2.37;2.00;;;;;;;9.21;75.25;100097.41;1702197;83;21236;-82
2022/04/21 14:58:51;;;;;;;4.85;2.20;;;;;;;9.14;76.01;100092.84;1702524;84;21275;-82
2022/04/21 15:01:57;;;;;;;3.27;2.20;;;;;;;9.07;76.54;100099.99;1675327;85;21203;-82
2022/04/21 15:05:03;;;;;;;5.03;2.25;;;;;;;9.03;77.71;100104.08;1673848;85;21216;-82
2022/04/21 15:08:09;;;;;;;2.67;2.00;;;;;;;9.01;78.82;100102.91;1674272;85;21291;-82
2022/04/21 15:11:17;;;;;;;3.22;2.30;;;;;;;9.00;78.88;100108.02;1700464;83;21203;-82
2022/04/21 15:14:22;;;;;;;5.10;2.00;;;;;;;8.95;78.65;100105.81;1698897;84;21224;-82
2022/04/21 15:17:27;;;;;;;2.70;1.50;;;;;;;8.90;78.18;100112.80;1703042;84;21223;-82
2022/04/21 15:20:37;;;;;;;1.95;1.60;;;;;;;8.86;78.75;100116.38;1703727;83;21164;-83
2022/04/21 15:23:45;;;;;;;3.22;1.55;;;;;;;8.79;79.14;100119.94;1702167;84;21839;-80
2022/04/21 15:26:52;;;;;;;2.87;1.92;;;;;;;8.73;79.34;100119.27;1702507;84;21203;-82
2022/04/21 15:29:58;;;;;;;1.40;1.27;;;;;;;8.71;79.67;100126.26;1715516;83;21206;-82
2022/04/21 15:33:04;;;;;;;3.35;1.15;;;;;;;8.68;79.79;100126.59;1708758;82;21252;-82